createdAt,value
2022-11-04T00:03:53.375Z,9.60
2022-11-04T00:08:57.913Z,9.50
2022-11-04T00:14:02.771Z,9.50
2022-11-04T00:19:06.184Z,9.40
2022-11-04T00:24:29.952Z,9.30
2022-11-04T00:29:34.873Z,9.40
2022-11-04T00:34:38.277Z,9.50
2022-11-04T00:39:41.779Z,9.50
2022-11-04T00:44:46.564Z,9.60
2022-11-04T00:49:49.976Z,9.50
2022-11-04T00:54:53.330Z,9.50
2022-11-04T00:59:58.106Z,9.50
2022-11-04T01:05:01.696Z,9.50
2022-11-04T01:10:05.766Z,9.60
2022-11-04T01:15:11.776Z,9.60
2022-11-04T01:20:15.357Z,9.70
2022-11-04T01:25:18.951Z,9.90
2022-11-04T01:30:23.824Z,10.10
2022-11-04T01:35:27.339Z,10.00
2022-11-04T01:40:30.911Z,10.10
2022-11-04T01:45:35.769Z,10.00
2022-11-04T01:50:39.577Z,10.00
2022-11-04T01:55:48.658Z,10.00
2022-11-04T02:00:53.453Z,10.00
2022-11-04T02:05:58.047Z,9.90
2022-11-04T02:11:02.998Z,9.80
2022-11-04T02:16:15.049Z,9.80
2022-11-04T02:21:42.251Z,9.70
2022-11-04T02:27:22.164Z,9.70
2022-11-04T02:32:37.422Z,9.60
2022-11-04T02:37:50.068Z,9.50
2022-11-04T02:42:59.763Z,9.60
2022-11-04T02:48:09.170Z,9.50
2022-11-04T02:53:18.528Z,9.60
2022-11-04T02:58:25.517Z,9.50
2022-11-04T03:03:35.487Z,9.50
2022-11-04T03:08:41.710Z,9.50
2022-11-04T03:13:50.072Z,9.50
2022-11-04T03:19:03.446Z,11.90
2022-11-04T03:24:07.463Z,9.50
2022-11-04T03:29:21.948Z,9.20
2022-11-04T03:34:26.645Z,9.50
2022-11-04T03:39:30.572Z,9.40
2022-11-04T03:44:34.499Z,9.40
2022-11-04T03:49:39.292Z,9.40
2022-11-04T03:54:43.272Z,9.40
2022-11-04T04:00:02.501Z,9.50
2022-11-04T04:05:17.825Z,9.50
2022-11-04T04:10:42.145Z,9.50
2022-11-04T04:15:50.690Z,9.50
2022-11-04T04:20:57.625Z,9.60
2022-11-04T04:26:23.466Z,9.60
2022-11-04T04:31:45.827Z,6.70
2022-11-04T04:36:54.727Z,9.50
2022-11-04T04:42:16.662Z,9.50
2022-11-04T04:47:24.065Z,9.50
2022-11-04T04:52:31.339Z,9.40
2022-11-04T04:57:34.595Z,9.40
2022-11-04T05:02:37.884Z,9.40
2022-11-04T05:07:42.855Z,9.30
2022-11-04T05:13:03.889Z,9.30
2022-11-04T05:18:07.971Z,9.30
2022-11-04T05:23:13.929Z,9.40
2022-11-04T05:28:17.344Z,9.40
2022-11-04T05:33:20.693Z,9.40
2022-11-04T05:38:25.294Z,9.30
2022-11-04T05:43:29.152Z,9.40
2022-11-04T05:48:37.760Z,9.40
2022-11-04T05:53:45.223Z,9.40
2022-11-04T05:58:48.548Z,9.40
2022-11-04T06:03:51.905Z,9.40
2022-11-04T06:08:56.994Z,9.40
2022-11-04T06:14:00.672Z,9.40
2022-11-04T06:19:09.598Z,9.40
2022-11-04T06:24:16.702Z,12.40
2022-11-04T06:29:19.974Z,9.40
2022-11-04T06:34:23.271Z,9.50
2022-11-04T06:39:28.072Z,9.50
2022-11-04T06:44:33.834Z,9.50
2022-11-04T06:49:37.175Z,9.40
2022-11-04T06:54:41.763Z,9.30
2022-11-04T06:59:44.982Z,9.30
2022-11-04T07:04:48.326Z,9.30
2022-11-04T07:09:53.021Z,9.40
2022-11-04T07:14:56.805Z,9.40
2022-11-04T07:20:00.368Z,9.30
2022-11-04T07:25:05.528Z,9.30
2022-11-04T07:30:10.077Z,9.30
2022-11-04T07:35:13.378Z,9.40
2022-11-04T07:40:18.327Z,9.40
2022-11-04T07:45:21.587Z,9.30
2022-11-04T07:50:24.928Z,9.30
2022-11-04T07:55:29.658Z,9.20
2022-11-04T08:00:33.000Z,9.20
2022-11-04T08:05:36.275Z,9.20
2022-11-04T08:10:41.055Z,9.20
2022-11-04T08:15:44.322Z,9.20
2022-11-04T08:20:51.273Z,9.20
2022-11-04T08:25:56.205Z,9.20
2022-11-04T08:31:02.688Z,9.20
2022-11-04T08:36:10.377Z,6.40
2022-11-04T08:41:17.007Z,9.20
2022-11-04T08:46:20.796Z,9.20
2022-11-04T08:51:27.036Z,9.20
2022-11-04T08:56:34.082Z,9.30
2022-11-04T09:01:38.187Z,9.40
2022-11-04T09:06:46.106Z,9.50
2022-11-04T09:11:50.783Z,9.50
2022-11-04T09:16:55.110Z,9.70
2022-11-04T09:21:58.678Z,9.80
2022-11-04T09:27:03.307Z,10.00
2022-11-04T09:32:07.081Z,9.90
2022-11-04T09:37:10.577Z,10.00
2022-11-04T09:42:48.059Z,10.00
2022-11-04T09:47:54.035Z,10.00
2022-11-04T09:53:01.353Z,10.20
2022-11-04T09:58:06.698Z,10.00
2022-11-04T10:03:24.878Z,10.20
2022-11-04T10:08:41.567Z,10.30
2022-11-04T10:14:09.054Z,10.40
2022-11-04T10:19:42.242Z,10.10
2022-11-04T10:24:54.608Z,10.30
2022-11-04T10:30:03.020Z,10.60
2022-11-04T10:35:17.164Z,10.30
2022-11-04T10:40:26.362Z,10.20
2022-11-04T10:45:40.928Z,10.20
2022-11-04T10:50:54.441Z,10.40
2022-11-04T10:56:03.793Z,10.40
2022-11-04T11:01:27.671Z,10.30
2022-11-04T11:06:32.723Z,10.40
2022-11-04T11:11:42.533Z,10.30
2022-11-04T11:16:48.301Z,10.40
2022-11-04T11:21:52.987Z,10.40
2022-11-04T11:27:00.076Z,10.60
2022-11-04T11:32:05.245Z,10.70
2022-11-04T11:37:21.059Z,10.80
2022-11-04T11:42:25.972Z,10.80
2022-11-04T11:47:42.159Z,10.50
2022-11-04T11:52:47.021Z,10.40
2022-11-04T12:09:18.265Z,10.20
2022-11-04T12:14:46.086Z,13.10
2022-11-04T12:20:14.854Z,9.90
2022-11-04T12:25:25.417Z,9.90
2022-11-04T12:30:38.379Z,9.90
2022-11-04T12:35:55.217Z,9.90
2022-11-04T12:46:38.673Z,9.60
2022-11-04T12:51:51.452Z,9.50
2022-11-04T12:57:07.065Z,9.40
2022-11-04T13:02:21.728Z,9.40
2022-11-04T13:07:32.441Z,9.50
2022-11-04T13:12:41.714Z,9.50
2022-11-04T13:17:47.027Z,9.50
2022-11-04T13:22:58.976Z,9.40
2022-11-04T13:28:05.729Z,9.50
2022-11-04T13:33:15.523Z,9.30
2022-11-04T13:38:23.868Z,9.20
2022-11-04T13:43:42.835Z,5.90
2022-11-04T13:49:00.725Z,9.00
2022-11-04T13:54:06.753Z,9.10
2022-11-04T13:59:21.348Z,9.10
2022-11-04T14:04:31.356Z,5.80
2022-11-04T14:09:54.911Z,9.10
2022-11-04T14:15:06.017Z,9.00
2022-11-04T14:20:12.719Z,9.00
2022-11-04T14:25:29.046Z,9.00
2022-11-04T14:30:43.397Z,9.10
2022-11-04T14:35:50.037Z,9.10
2022-11-04T14:41:14.947Z,9.10
2022-11-04T14:46:23.741Z,9.10
2022-11-04T14:51:29.416Z,9.10
2022-11-04T14:56:34.200Z,9.10
2022-11-04T15:01:41.034Z,9.10
2022-11-04T15:06:59.713Z,9.10
2022-11-04T15:12:29.872Z,9.00
2022-11-04T15:17:35.074Z,9.00
2022-11-04T15:22:47.111Z,9.10
2022-11-04T15:27:53.131Z,9.10
2022-11-04T15:32:58.382Z,9.00
2022-11-04T15:38:03.885Z,9.00
2022-11-04T15:43:09.076Z,9.00
2022-11-04T15:48:27.067Z,8.90
2022-11-04T15:53:30.426Z,8.90
2022-11-04T15:58:35.689Z,8.90
2022-11-04T16:03:39.095Z,8.90
2022-11-04T16:08:42.883Z,8.80
2022-11-04T16:13:48.374Z,8.90
2022-11-04T16:18:54.886Z,8.90
2022-11-04T16:24:02.212Z,8.80
2022-11-04T16:29:10.585Z,8.80
2022-11-04T16:34:14.629Z,8.80
2022-11-04T16:39:17.860Z,8.80
2022-11-04T16:44:24.074Z,8.70
2022-11-04T16:49:27.486Z,8.70
2022-11-04T16:54:30.846Z,8.70
2022-11-04T16:59:35.507Z,8.70
2022-11-04T17:04:38.745Z,8.70
2022-11-04T17:09:42.130Z,8.70
2022-11-04T17:14:47.050Z,8.70
2022-11-04T17:19:50.275Z,8.70
2022-11-04T17:24:53.814Z,8.70
2022-11-04T17:29:59.168Z,8.70
2022-11-04T17:35:02.549Z,8.70
2022-11-04T17:40:06.734Z,8.60
2022-11-04T17:45:12.201Z,8.60
2022-11-04T17:50:16.109Z,8.60
2022-11-04T17:55:24.613Z,8.60
2022-11-04T18:00:31.995Z,8.60
2022-11-04T18:05:35.848Z,8.50
2022-11-04T18:10:39.202Z,8.50
2022-11-04T18:15:44.728Z,8.50
2022-11-04T18:26:19.505Z,8.50
2022-11-04T18:31:26.820Z,8.40
2022-11-04T18:36:30.378Z,8.40
2022-11-04T18:41:34.377Z,8.40
2022-11-04T18:46:39.633Z,8.30
2022-11-04T18:51:43.448Z,8.40
2022-11-04T18:56:46.999Z,8.40
2022-11-04T19:01:53.357Z,8.40
2022-11-04T19:06:56.874Z,8.40
2022-11-04T19:12:14.112Z,8.40
2022-11-04T19:17:18.726Z,8.40
2022-11-04T19:22:22.135Z,8.30
2022-11-04T19:27:25.540Z,8.40
2022-11-04T19:32:30.590Z,8.40
2022-11-04T19:37:34.363Z,8.40
2022-11-04T19:42:55.341Z,8.40
2022-11-04T19:48:00.250Z,8.40
2022-11-04T19:53:04.093Z,8.40
2022-11-04T19:58:08.424Z,8.40
2022-11-04T20:03:13.667Z,8.40
2022-11-04T20:08:17.259Z,8.40
2022-11-04T20:13:38.856Z,8.40
2022-11-04T20:18:45.113Z,8.40
2022-11-04T20:23:49.416Z,8.40
2022-11-04T20:28:54.752Z,8.40
2022-11-04T20:34:02.606Z,8.40
2022-11-04T20:39:08.309Z,8.40
2022-11-04T20:44:12.140Z,8.40
2022-11-04T20:49:17.186Z,8.30
2022-11-04T20:54:21.770Z,8.30
2022-11-04T20:59:25.298Z,8.20
2022-11-04T21:04:35.738Z,8.20
2022-11-04T21:09:39.875Z,8.10
2022-11-04T21:14:43.441Z,8.10
2022-11-04T21:19:48.279Z,8.10
2022-11-04T21:24:51.573Z,8.10
2022-11-04T21:29:54.832Z,8.00
2022-11-04T21:34:59.528Z,8.00
2022-11-04T21:40:02.953Z,8.00
2022-11-04T21:45:07.184Z,7.90
2022-11-04T21:50:17.721Z,7.90
2022-11-04T21:55:21.507Z,7.80
2022-11-04T22:00:25.041Z,7.80
2022-11-04T22:05:30.017Z,7.70
2022-11-04T22:10:33.401Z,7.70
2022-11-04T22:15:53.971Z,7.60
2022-11-04T22:21:01.668Z,7.60
2022-11-04T22:26:07.291Z,7.60
2022-11-04T22:31:12.367Z,7.60
2022-11-04T22:36:17.450Z,7.60
2022-11-04T22:41:22.183Z,7.60
2022-11-04T22:46:27.967Z,7.50
2022-11-04T22:51:32.703Z,7.40
2022-11-04T22:56:35.975Z,7.40
2022-11-04T23:01:39.702Z,7.20
2022-11-04T23:06:44.633Z,7.20
2022-11-04T23:12:05.456Z,7.10
2022-11-04T23:17:33.583Z,7.00
2022-11-04T23:22:56.195Z,7.00
2022-11-04T23:28:16.750Z,6.90
2022-11-04T23:33:40.235Z,6.80
2022-11-04T23:38:49.289Z,6.80
2022-11-04T23:43:54.226Z,6.80
2022-11-04T23:49:15.136Z,6.80
2022-11-04T23:54:37.046Z,6.80
2022-11-04T23:59:57.925Z,6.80
